Time;durP1;ratioP1;P1;durP2;ratioP2;P2;SDS_P1;SDS_P2;PMS_P1;PMS_P2;Temp;Humidity;BMP_temperature;BMP_pressure;BME280_temperature;BME280_humidity;BME280_pressure;Samples;Min_cycle;Max_cycle;Signal;HPM_P1;HPM_P2
2022/01/25 00:09:31;;;;;;;56.60;26.60;;;;;;;3.01;83.90;103370.91;5083598;28;20490;-89
2022/01/25 00:33:30;;;;;;;56.67;26.98;;;;;;;3.08;83.83;103364.16;5079600;28;20027;-89
2022/01/25 00:35:56;;;;;;;57.50;26.58;;;;;;;3.06;84.08;103368.44;5078643;28;20024;-89
2022/01/25 00:38:21;;;;;;;58.40;26.85;;;;;;;3.03;84.00;103361.41;5089088;28;20046;-89
2022/01/25 00:40:46;;;;;;;58.97;27.05;;;;;;;3.06;83.93;103365.81;5076935;28;20032;-89
2022/01/25 00:43:12;;;;;;;56.03;26.02;;;;;;;3.11;83.54;103363.34;5080440;28;20059;-89
2022/01/25 00:45:38;;;;;;;62.28;28.08;;;;;;;3.09;83.20;103357.19;5086578;28;20068;-90
2022/01/25 00:48:06;;;;;;;54.40;26.48;;;;;;;3.10;83.59;103354.63;5090074;28;20039;-89
2022/01/25 00:50:40;;;;;;;51.67;24.63;;;;;;;3.07;83.82;103350.16;5083199;28;20016;-90
2022/01/25 00:55:33;;;;;;;50.42;24.48;;;;;;;3.11;83.71;103353.78;5087460;28;20063;-89
2022/01/25 00:58:00;;;;;;;54.50;25.58;;;;;;;3.08;83.74;103348.47;5083900;28;20028;-89
2022/01/25 01:00:26;;;;;;;54.72;25.60;;;;;;;3.15;83.37;103357.38;5079151;28;20028;-88
2022/01/25 01:02:53;;;;;;;68.07;27.85;;;;;;;3.08;83.25;103340.63;5080063;28;20035;-89
2022/01/25 01:05:19;;;;;;;52.55;25.67;;;;;;;3.15;83.84;103355.66;5084622;28;20036;-89
2022/01/25 01:07:44;;;;;;;54.20;25.27;;;;;;;3.19;83.99;103359.25;5077714;28;20032;-89
2022/01/25 01:10:15;;;;;;;53.50;25.63;;;;;;;3.17;83.85;103353.97;5078932;28;20052;-89
2022/01/25 01:34:43;;;;;;;60.65;24.75;;;;;;;3.31;83.36;103354.38;5025582;28;20029;-89
2022/01/25 01:37:31;;;;;;;51.80;24.38;;;;;;;3.38;83.35;103368.53;5065105;28;20087;-89
2022/01/25 01:43:00;;;;;;;63.60;26.85;;;;;;;3.32;83.41;103359.66;5082217;28;20055;-89
2022/01/25 01:45:46;;;;;;;63.05;27.83;;;;;;;3.33;83.03;103360.56;5082456;28;20042;-89
2022/01/25 01:48:27;;;;;;;58.65;25.67;;;;;;;3.31;83.57;103359.59;5082093;28;20016;-89
2022/01/25 01:50:53;;;;;;;51.33;22.65;;;;;;;3.28;83.60;103365.66;5086104;28;20542;-89
2022/01/25 01:53:18;;;;;;;56.55;26.42;;;;;;;3.23;83.72;103354.16;5081669;28;20522;-89
2022/01/25 01:55:44;;;;;;;58.40;26.77;;;;;;;3.29;83.57;103366.53;5087699;28;20036;-89
2022/01/25 01:58:09;;;;;;;63.92;27.27;;;;;;;3.31;83.37;103370.06;5086205;28;20028;-89
2022/01/25 02:00:41;;;;;;;61.95;27.20;;;;;;;3.33;83.47;103361.44;5080370;28;20028;-89
2022/01/25 02:03:07;;;;;;;63.30;26.90;;;;;;;3.35;83.64;103363.19;5079716;28;20028;-89
2022/01/25 02:05:33;;;;;;;53.67;25.20;;;;;;;3.46;83.50;103373.16;5082572;28;20497;-89
2022/01/25 02:08:00;;;;;;;50.72;25.20;;;;;;;3.46;83.54;103362.69;5085258;28;20024;-89
2022/01/25 02:10:26;;;;;;;59.38;26.20;;;;;;;3.40;83.16;103352.03;5083961;28;20437;-89
2022/01/25 02:12:52;;;;;;;65.30;28.05;;;;;;;3.42;82.87;103355.59;5081240;28;20456;-89
2022/01/25 02:15:20;;;;;;;52.90;23.95;;;;;;;3.44;83.25;103353.91;5079828;28;20562;-89
2022/01/25 02:22:56;;;;;;;63.17;24.55;;;;;;;3.28;83.40;103344.72;5085788;28;20050;-89
2022/01/25 02:25:22;;;;;;;55.30;24.98;;;;;;;3.30;83.87;103347.38;5074456;28;20104;-89
2022/01/25 02:27:48;;;;;;;51.13;23.20;;;;;;;3.36;83.63;103349.28;5081812;28;20024;-89
2022/01/25 02:30:14;;;;;;;54.88;24.30;;;;;;;3.31;83.61;103342.22;5087216;28;20092;-89
2022/01/25 02:32:39;;;;;;;53.28;23.63;;;;;;;3.33;83.34;103340.53;5081344;28;20110;-89
2022/01/25 02:35:05;;;;;;;54.35;24.33;;;;;;;3.30;84.00;103334.31;5072680;28;20074;-89
2022/01/25 02:37:31;;;;;;;55.92;24.70;;;;;;;3.29;84.10;103343.00;5085986;28;20093;-89
2022/01/25 02:39:57;;;;;;;51.42;24.38;;;;;;;3.31;84.07;103336.06;5082320;28;20024;-89
2022/01/25 02:42:23;;;;;;;54.47;23.95;;;;;;;3.23;84.08;103334.97;5082044;28;20470;-89
2022/01/25 02:44:49;;;;;;;58.17;26.40;;;;;;;3.18;84.88;103342.69;5084334;28;20050;-89
2022/01/25 02:49:58;;;;;;;66.65;28.83;;;;;;;3.08;84.63;103332.78;5077796;28;20030;-89
2022/01/25 02:52:24;;;;;;;57.00;25.67;;;;;;;3.10;84.65;103323.25;5080541;28;20032;-89
2022/01/25 02:54:50;;;;;;;57.50;24.63;;;;;;;3.20;84.67;103343.59;5086075;28;20042;-89
2022/01/25 02:57:16;;;;;;;62.28;25.60;;;;;;;3.19;84.52;103326.16;5082916;28;20439;-89
2022/01/25 02:59:41;;;;;;;57.20;23.83;;;;;;;3.23;84.51;103322.78;5078153;28;20090;-89
2022/01/25 03:02:06;;;;;;;57.80;26.20;;;;;;;3.28;83.92;103333.38;5079243;28;20055;-90
2022/01/25 03:04:32;;;;;;;58.90;25.67;;;;;;;3.15;84.03;103326.00;5080467;28;20024;-88
2022/01/25 03:06:57;;;;;;;60.40;26.02;;;;;;;3.17;84.34;103333.06;5087188;28;20016;-89
2022/01/25 03:09:23;;;;;;;56.95;25.65;;;;;;;3.21;84.20;103320.97;5074643;28;20131;-89
2022/01/25 03:11:52;;;;;;;60.83;25.30;;;;;;;3.26;83.99;103319.38;5086238;28;20032;-89
2022/01/25 03:14:20;;;;;;;58.22;24.20;;;;;;;3.35;84.07;103323.97;5075272;28;20187;-90
2022/01/25 03:16:53;;;;;;;53.85;23.50;;;;;;;3.36;84.32;103318.81;5074805;28;20399;-89
2022/01/25 03:22:06;;;;;;;55.08;24.10;;;;;;;3.39;83.90;103312.78;5087727;28;20040;-89
2022/01/25 03:24:31;;;;;;;57.78;24.75;;;;;;;3.37;83.66;103310.13;5082256;28;20031;-89
2022/01/25 03:26:57;;;;;;;59.03;25.08;;;;;;;3.38;83.87;103301.44;5081942;28;20663;-89
2022/01/25 03:29:22;;;;;;;63.05;26.08;;;;;;;3.35;83.89;103295.22;5083665;28;20755;-89
2022/01/25 03:31:48;;;;;;;62.65;25.83;;;;;;;3.34;84.00;103299.56;5084275;28;20479;-89
2022/01/25 03:34:13;;;;;;;58.95;24.33;;;;;;;3.33;83.91;103292.56;5083048;28;20380;-89
2022/01/25 03:36:39;;;;;;;56.63;23.95;;;;;;;3.44;83.57;103305.94;5082819;28;20035;-89
2022/01/25 03:39:06;;;;;;;62.95;26.23;;;;;;;3.41;83.54;103306.78;5084480;28;20028;-89
2022/01/25 03:41:33;;;;;;;67.20;28.40;;;;;;;3.39;83.80;103305.81;5081512;28;20463;-89
2022/01/25 03:43:59;;;;;;;62.75;27.55;;;;;;;3.42;83.72;103299.81;5079625;28;20043;-89
2022/01/25 03:51:54;;;;;;;61.75;27.27;;;;;;;3.38;83.64;103301.44;5084557;28;20057;-89
2022/01/25 03:54:20;;;;;;;71.50;28.15;;;;;;;3.42;83.40;103302.41;5081310;28;20024;-89
2022/01/25 03:56:46;;;;;;;65.95;26.33;;;;;;;3.49;83.67;103314.81;5084309;28;20055;-89
2022/01/25 03:59:12;;;;;;;65.85;27.08;;;;;;;3.49;83.79;103310.47;5070339;28;20051;-89
2022/01/25 04:01:38;;;;;;;64.65;26.50;;;;;;;3.49;83.86;103309.59;5082759;28;20440;-89
2022/01/25 04:04:09;;;;;;;59.22;25.17;;;;;;;3.53;83.89;103329.75;5084947;28;20052;-89
2022/01/25 04:06:36;;;;;;;65.63;26.48;;;;;;;3.47;83.56;103312.16;5081593;28;20372;-89
2022/01/25 04:09:07;;;;;;;68.03;29.23;;;;;;;3.44;83.11;103309.44;5082749;28;20586;-89
2022/01/25 04:11:34;;;;;;;62.33;26.20;;;;;;;3.56;83.26;103319.38;5097236;28;20024;-89
2022/01/25 04:14:00;;;;;;;71.38;28.80;;;;;;;3.54;83.46;103318.44;5084869;28;20282;-89
2022/01/25 04:16:32;;;;;;;64.05;26.80;;;;;;;3.59;83.37;103332.56;5084523;28;20391;-89
2022/01/25 04:26:52;;;;;;;65.00;26.38;;;;;;;3.64;83.58;103303.91;5085282;28;20388;-89
2022/01/25 04:29:18;;;;;;;67.43;27.92;;;;;;;3.68;83.49;103314.50;5085056;28;20058;-89
2022/01/25 04:31:43;;;;;;;63.38;26.05;;;;;;;3.64;83.52;103304.81;5083623;28;20457;-89
2022/01/25 04:34:25;;;;;;;60.47;25.13;;;;;;;3.58;83.54;103299.38;5084925;28;20031;-89
2022/01/25 04:55:52;;;;;;;60.28;24.88;;;;;;;3.48;83.45;103281.66;5080067;28;20115;-89
2022/01/25 04:58:26;;;;;;;61.65;24.85;;;;;;;3.57;83.45;103292.38;5082182;28;20024;-89
2022/01/25 05:00:52;;;;;;;63.92;26.77;;;;;;;3.62;83.06;103300.38;5084927;28;20473;-89
2022/01/25 05:03:24;;;;;;;65.10;26.02;;;;;;;3.56;82.84;103293.25;5082907;28;20028;-89
2022/01/25 05:08:30;;;;;;;72.75;29.48;;;;;;;3.59;83.38;103295.94;5083842;28;20160;-89
2022/01/25 05:11:17;;;;;;;67.22;27.45;;;;;;;3.58;83.32;103288.91;5080854;28;20060;-89
2022/01/25 05:13:52;;;;;;;54.13;23.20;;;;;;;3.60;83.54;103286.38;5078558;28;20047;-89
2022/01/25 05:19:21;;;;;;;59.78;25.13;;;;;;;3.62;83.42;103305.59;5081632;28;20043;-89
2022/01/25 05:24:35;;;;;;;56.13;23.42;;;;;;;3.60;83.84;103289.88;5085189;28;20035;-89
2022/01/25 05:27:01;;;;;;;65.22;25.23;;;;;;;3.59;83.73;103288.09;5083205;28;21365;-89
2022/01/25 05:29:26;;;;;;;62.63;26.33;;;;;;;3.61;83.57;103291.63;5084248;28;20060;-89
2022/01/25 05:31:51;;;;;;;64.93;26.63;;;;;;;3.57;83.64;103289.78;5076501;28;20380;-89
2022/01/25 05:34:17;;;;;;;65.65;25.40;;;;;;;3.59;83.63;103290.72;5077582;28;20097;-89
2022/01/25 05:36:43;;;;;;;60.88;24.25;;;;;;;3.52;83.33;103271.34;5089593;28;20028;-89
2022/01/25 05:39:17;;;;;;;65.07;25.90;;;;;;;3.53;83.89;103285.28;5084552;28;20023;-89
2022/01/25 05:41:43;;;;;;;72.05;27.52;;;;;;;3.52;83.32;103287.03;5088413;28;20020;-89
2022/01/25 05:44:25;;;;;;;63.55;26.35;;;;;;;3.51;83.72;103284.38;5085887;28;20502;-89
2022/01/25 05:49:22;;;;;;;67.80;25.15;;;;;;;3.58;83.73;103279.34;5083554;28;19912;-89
2022/01/25 05:51:48;;;;;;;67.63;27.08;;;;;;;3.63;83.79;103283.81;5077963;28;20487;-89
2022/01/25 05:54:14;;;;;;;59.80;24.60;;;;;;;3.66;83.62;103291.75;5086930;28;20110;-89
2022/01/25 05:56:39;;;;;;;60.85;26.52;;;;;;;3.63;83.57;103289.06;5087341;28;20384;-89
2022/01/25 05:59:05;;;;;;;69.97;27.50;;;;;;;3.65;83.83;103288.25;5081457;28;20028;-90
2022/01/25 06:01:31;;;;;;;73.30;28.45;;;;;;;3.58;83.39;103275.84;5085443;28;20031;-89
2022/01/25 06:03:57;;;;;;;70.03;27.75;;;;;;;3.55;83.55;103275.78;5080856;28;20460;-89
2022/01/25 06:06:22;;;;;;;72.70;29.30;;;;;;;3.57;83.50;103285.41;5083632;28;20020;-89
2022/01/25 06:08:47;;;;;;;70.97;26.80;;;;;;;3.55;83.26;103267.94;5083916;28;20531;-90
2022/01/25 06:11:13;;;;;;;72.60;27.73;;;;;;;3.55;83.72;103279.28;5089756;28;20016;-89
2022/01/25 06:13:38;;;;;;;76.07;28.55;;;;;;;3.56;83.53;103282.78;5084344;28;20092;-89
2022/01/25 06:16:04;;;;;;;67.40;26.92;;;;;;;3.49;83.81;103273.84;5078586;28;20054;-89
2022/01/25 06:18:29;;;;;;;70.82;27.52;;;;;;;3.50;84.22;103272.16;5072696;28;20078;-89
2022/01/25 06:20:54;;;;;;;73.97;28.90;;;;;;;3.51;83.61;103274.81;5089205;28;20096;-88
2022/01/25 06:23:20;;;;;;;62.38;24.80;;;;;;;3.54;83.62;103287.97;5085130;28;20453;-89
2022/01/25 06:25:45;;;;;;;64.55;25.70;;;;;;;3.52;83.63;103279.19;5085692;28;20028;-89
2022/01/25 06:28:11;;;;;;;64.22;26.67;;;;;;;3.52;83.61;103279.19;5086819;28;20028;-89
2022/01/25 06:30:36;;;;;;;68.20;27.85;;;;;;;3.55;83.66;103287.13;5084392;28;20399;-89
2022/01/25 06:33:02;;;;;;;69.50;27.95;;;;;;;3.56;83.33;103280.16;5085517;28;20125;-90
2022/01/25 06:35:29;;;;;;;65.38;27.95;;;;;;;3.54;83.73;103280.13;5079188;28;20013;-89
2022/01/25 06:37:54;;;;;;;76.85;29.60;;;;;;;3.47;83.60;103272.94;5087112;28;20024;-89
2022/01/25 06:40:19;;;;;;;69.20;28.15;;;;;;;3.47;83.77;103275.56;5087310;28;20047;-89
2022/01/25 06:42:45;;;;;;;74.25;30.08;;;;;;;3.53;84.20;103286.19;5084952;28;20395;-89
2022/01/25 06:45:17;;;;;;;75.47;29.60;;;;;;;3.58;83.90;103296.75;5084703;28;20032;-89
2022/01/25 06:47:44;;;;;;;79.30;31.55;;;;;;;3.58;83.47;103281.97;5084041;28;20023;-89
2022/01/25 06:50:10;;;;;;;76.88;31.08;;;;;;;3.58;83.41;103295.03;5080392;28;20020;-90
2022/01/25 06:52:38;;;;;;;80.13;30.08;;;;;;;3.51;83.40;103276.53;5085158;28;20020;-90
2022/01/25 06:55:09;;;;;;;80.32;31.67;;;;;;;3.53;83.23;103280.94;5078263;28;20016;-89
2022/01/25 06:57:34;;;;;;;75.95;29.75;;;;;;;3.62;83.11;103287.28;5071177;28;20044;-89
2022/01/25 07:00:00;;;;;;;77.93;28.80;;;;;;;3.61;83.31;103285.53;5087406;28;20028;-89
2022/01/25 07:02:25;;;;;;;76.60;29.45;;;;;;;3.64;83.21;103293.44;5083851;28;20066;-89
2022/01/25 07:04:51;;;;;;;79.50;30.33;;;;;;;3.62;83.42;103296.00;5082917;28;20058;-89
2022/01/25 07:07:16;;;;;;;79.10;31.05;;;;;;;3.67;83.19;103304.00;5074172;28;20074;-89
2022/01/25 07:09:41;;;;;;;74.75;29.30;;;;;;;3.67;83.02;103309.22;5083204;28;20012;-89
2022/01/25 07:12:07;;;;;;;70.32;27.00;;;;;;;3.68;82.79;103306.63;5086244;28;20139;-90
2022/01/25 07:14:32;;;;;;;85.32;31.88;;;;;;;3.66;83.25;103294.38;5082896;28;20502;-89
2022/01/25 07:16:58;;;;;;;79.10;31.23;;;;;;;3.60;82.64;103289.88;5084881;28;20023;-90
2022/01/25 07:19:24;;;;;;;78.95;31.70;;;;;;;3.67;82.72;103299.63;5085079;28;20062;-89
2022/01/25 07:21:49;;;;;;;72.57;29.45;;;;;;;3.73;82.99;103305.06;5083429;28;20484;-89
2022/01/25 07:24:15;;;;;;;73.43;30.33;;;;;;;3.66;82.97;103299.59;5082410;28;20028;-90
2022/01/25 07:26:40;;;;;;;71.55;28.42;;;;;;;3.61;83.15;103296.88;5084460;28;20024;-89
2022/01/25 07:29:05;;;;;;;80.47;29.65;;;;;;;3.70;83.19;103302.34;5086272;28;20027;-89
2022/01/25 07:31:31;;;;;;;74.13;29.60;;;;;;;3.64;82.96;103290.81;5076909;28;20021;-89
2022/01/25 07:33:56;;;;;;;81.88;31.27;;;;;;;3.69;82.86;103303.22;5074366;28;20123;-90
2022/01/25 07:36:21;;;;;;;78.65;30.42;;;;;;;3.71;82.79;103301.50;5084357;28;20452;-89
2022/01/25 07:38:47;;;;;;;77.05;30.73;;;;;;;3.68;82.52;103303.13;5084977;28;20043;-89
2022/01/25 07:41:12;;;;;;;78.72;30.27;;;;;;;3.73;82.79;103307.69;5086449;28;20028;-89
2022/01/25 07:43:37;;;;;;;76.40;30.02;;;;;;;3.74;82.88;103301.59;5084463;28;20078;-90
2022/01/25 07:46:04;;;;;;;76.22;30.67;;;;;;;3.79;82.74;103310.47;5085190;28;20020;-89
2022/01/25 07:48:30;;;;;;;68.85;28.92;;;;;;;3.73;82.64;103293.69;5083505;28;20020;-90
2022/01/25 07:50:56;;;;;;;82.07;32.10;;;;;;;3.81;82.43;103318.34;5096823;28;20510;-90
2022/01/25 07:53:22;;;;;;;92.88;35.78;;;;;;;3.73;82.14;103293.69;5085299;28;20110;-90
2022/01/25 07:55:47;;;;;;;99.82;37.90;;;;;;;3.87;82.04;103313.28;5084201;28;20430;-90
2022/01/25 07:58:12;;;;;;;104.10;40.15;;;;;;;3.88;80.76;103315.06;5082928;28;20031;-89
2022/01/25 08:00:38;;;;;;;87.38;35.90;;;;;;;3.88;81.98;103314.19;5084520;28;20080;-89
2022/01/25 08:03:03;;;;;;;85.88;35.10;;;;;;;3.82;82.02;103304.41;5084268;28;20618;-90
2022/01/25 08:05:29;;;;;;;95.75;37.22;;;;;;;3.80;80.70;103307.00;5084755;28;20471;-90
2022/01/25 08:07:54;;;;;;;100.60;37.35;;;;;;;3.78;80.50;103306.06;5084758;28;20278;-89
2022/01/25 08:10:21;;;;;;;87.95;34.08;;;;;;;3.77;81.06;103295.53;5080561;28;20472;-89
2022/01/25 08:12:47;;;;;;;91.72;34.35;;;;;;;3.80;81.80;103291.28;5083427;28;20028;-89
2022/01/25 08:15:13;;;;;;;94.60;37.20;;;;;;;3.98;81.39;103318.81;5079838;28;20565;-90
2022/01/25 08:17:38;;;;;;;89.70;34.92;;;;;;;3.90;81.53;103304.63;5081223;28;20336;-89
2022/01/25 08:20:04;;;;;;;100.07;36.97;;;;;;;3.88;80.65;103303.72;5076361;28;20175;-90
2022/01/25 08:22:30;;;;;;;86.28;34.17;;;;;;;3.95;81.24;103318.72;5081309;28;20023;-89
2022/01/25 08:24:55;;;;;;;99.63;37.90;;;;;;;4.01;81.10;103317.16;5082150;28;20055;-90
2022/01/25 08:27:23;;;;;;;94.53;38.13;;;;;;;4.01;80.62;103322.41;5074322;28;21176;-89
2022/01/25 08:29:49;;;;;;;98.00;39.10;;;;;;;4.00;80.66;103312.75;5080548;28;20068;-89
2022/01/25 08:32:15;;;;;;;95.35;37.38;;;;;;;4.09;80.91;103323.47;5083136;28;20058;-89
2022/01/25 08:34:43;;;;;;;104.00;40.17;;;;;;;4.11;80.10;103312.19;5077807;28;20463;-89
2022/01/25 08:37:09;;;;;;;102.13;39.97;;;;;;;4.15;79.98;103317.53;5071460;28;20082;-89
2022/01/25 08:39:34;;;;;;;105.18;39.42;;;;;;;4.18;79.36;103320.22;5085232;28;20078;-89
2022/01/25 08:41:59;;;;;;;112.57;43.20;;;;;;;4.21;78.51;103322.91;5087044;28;20444;-90
2022/01/25 08:44:25;;;;;;;110.03;42.17;;;;;;;4.21;78.01;103314.19;5080389;28;20039;-89
2022/01/25 08:46:50;;;;;;;105.18;39.88;;;;;;;4.31;78.06;103332.78;5083510;28;20068;-89
2022/01/25 08:49:16;;;;;;;105.35;40.30;;;;;;;4.36;78.60;103335.53;5082753;28;20411;-89
2022/01/25 08:51:41;;;;;;;106.03;42.28;;;;;;;4.40;79.25;103336.50;5084613;28;20024;-90
2022/01/25 08:54:07;;;;;;;95.45;39.20;;;;;;;4.34;79.17;103319.78;5083535;28;20446;-89
2022/01/25 08:56:32;;;;;;;103.70;40.10;;;;;;;4.40;79.64;103332.13;5088421;28;20083;-90
2022/01/25 08:58:58;;;;;;;105.80;41.13;;;;;;;4.38;78.88;103320.72;5088178;28;20452;-90
2022/01/25 09:01:25;;;;;;;101.72;40.05;;;;;;;4.44;77.36;103328.75;5078289;28;20077;-90
2022/01/25 09:03:50;;;;;;;106.82;39.65;;;;;;;4.45;77.02;103330.50;5080975;28;20115;-90
2022/01/25 09:06:17;;;;;;;98.07;38.92;;;;;;;4.56;77.13;103341.25;5082716;28;20166;-90
2022/01/25 09:08:43;;;;;;;105.75;41.40;;;;;;;4.57;77.49;103341.31;5083083;28;20020;-90
2022/01/25 09:11:08;;;;;;;96.55;37.97;;;;;;;4.61;78.11;103337.88;5080134;28;20566;-90
2022/01/25 09:13:34;;;;;;;104.20;38.50;;;;;;;4.62;78.30;103338.81;5079462;28;20435;-90
2022/01/25 09:16:00;;;;;;;100.40;39.95;;;;;;;4.69;77.60;103343.34;5078861;28;20438;-90
2022/01/25 09:18:27;;;;;;;107.10;40.63;;;;;;;4.65;77.38;103325.75;5089828;28;20065;-90
2022/01/25 09:20:53;;;;;;;108.05;43.05;;;;;;;4.66;76.84;103330.16;5092605;28;20491;-90
2022/01/25 09:23:19;;;;;;;98.80;39.15;;;;;;;4.70;76.37;103337.22;5084820;28;20016;-90
2022/01/25 09:25:49;;;;;;;94.35;40.80;;;;;;;4.76;76.11;103341.75;5077129;28;20362;-90
2022/01/25 09:28:16;;;;;;;98.38;39.65;;;;;;;4.75;76.83;103335.59;5083150;28;20031;-90
2022/01/25 09:30:43;;;;;;;96.15;39.25;;;;;;;4.80;76.26;103338.34;5080731;28;20471;-90
2022/01/25 09:33:08;;;;;;;88.40;36.75;;;;;;;4.90;76.10;103355.19;5084413;28;20040;-90
2022/01/25 09:35:34;;;;;;;95.65;38.28;;;;;;;4.87;75.65;103332.41;5082720;28;20035;-90
2022/01/25 09:37:59;;;;;;;95.03;38.45;;;;;;;4.98;75.83;103353.63;5088570;28;20031;-89
2022/01/25 09:40:25;;;;;;;95.93;39.50;;;;;;;4.98;75.68;103348.38;5083133;28;20034;-90
2022/01/25 09:42:54;;;;;;;98.18;40.70;;;;;;;4.94;75.89;103336.03;5084705;28;20124;-90
2022/01/25 09:45:19;;;;;;;105.07;41.17;;;;;;;5.00;75.56;103350.19;5080523;28;20369;-89
2022/01/25 09:47:46;;;;;;;105.82;42.28;;;;;;;5.03;75.30;103351.97;5081105;28;20042;-90
2022/01/25 09:50:12;;;;;;;113.28;42.55;;;;;;;5.09;74.60;103357.41;5081843;28;20111;-90
2022/01/25 09:52:40;;;;;;;93.72;39.45;;;;;;;5.08;75.46;103358.22;5076745;28;20114;-90
2022/01/25 09:55:10;;;;;;;98.38;40.90;;;;;;;5.04;74.63;103353.78;5084624;28;20449;-91
2022/01/25 09:57:36;;;;;;;94.47;37.08;;;;;;;5.10;73.64;103365.28;5082617;28;20597;-90
2022/01/25 10:00:02;;;;;;;97.45;40.42;;;;;;;5.03;74.97;103358.13;5085954;28;20020;-90
2022/01/25 10:03:07;;;;;;;95.32;39.97;;;;;;;5.09;74.23;103363.53;5081060;28;20027;-91
2022/01/25 10:05:36;;;;;;;101.13;39.95;;;;;;;4.98;73.86;103362.38;5081109;28;20024;-89
2022/01/25 10:08:09;;;;;;;98.43;40.80;;;;;;;5.05;73.40;103364.28;5087049;28;20024;-91
2022/01/25 10:10:37;;;;;;;93.13;38.22;;;;;;;5.10;73.75;103373.16;5088329;28;20032;-90
2022/01/25 10:13:23;;;;;;;104.18;41.70;;;;;;;5.22;74.75;103366.41;5087822;28;20392;-90
2022/01/25 10:15:56;;;;;;;104.47;41.65;;;;;;;5.22;73.90;103359.44;5082504;28;20055;-90
2022/01/25 10:18:22;;;;;;;94.90;40.33;;;;;;;5.28;73.27;103356.06;5083036;28;20030;-89
2022/01/25 10:20:50;;;;;;;102.65;41.38;;;;;;;5.40;74.06;103364.19;5088084;28;20047;-90
2022/01/25 10:23:30;;;;;;;96.30;40.90;;;;;;;5.45;74.40;103361.66;5072193;28;20521;-90
2022/01/25 10:25:56;;;;;;;100.20;40.85;;;;;;;5.51;73.46;103365.31;5086965;28;20480;-90
2022/01/25 10:28:27;;;;;;;103.20;42.88;;;;;;;5.45;72.42;103366.91;5088117;28;20400;-90
2022/01/25 10:30:56;;;;;;;93.55;39.22;;;;;;;5.51;72.51;103356.56;5083072;28;20487;-89
2022/01/25 10:33:31;;;;;;;97.97;39.53;;;;;;;5.52;72.95;103364.47;5085423;28;20540;-90
2022/01/25 10:36:11;;;;;;;102.53;41.38;;;;;;;5.49;72.52;103358.25;5090553;28;20028;-90
2022/01/25 10:38:37;;;;;;;99.68;40.92;;;;;;;5.48;72.42;103354.75;5079974;28;20122;-90
2022/01/25 10:41:08;;;;;;;97.43;39.08;;;;;;;5.48;73.04;103344.25;5081492;28;20136;-90
2022/01/25 10:43:35;;;;;;;103.57;40.50;;;;;;;5.59;72.49;103362.84;5085867;28;20058;-91
2022/01/25 10:46:10;;;;;;;104.57;40.65;;;;;;;5.60;72.93;103356.75;5077770;28;20489;-90
2022/01/25 10:48:36;;;;;;;98.38;39.63;;;;;;;5.65;71.80;103359.50;5085784;28;20305;-90
2022/01/25 10:51:10;;;;;;;103.05;41.75;;;;;;;5.70;71.55;103350.84;5079131;28;20499;-90
2022/01/25 10:53:36;;;;;;;103.85;43.65;;;;;;;5.68;71.43;103331.53;5080385;28;20082;-90
2022/01/25 10:56:03;;;;;;;101.28;41.78;;;;;;;5.79;71.62;103348.41;5081302;28;20028;-90
2022/01/25 10:58:29;;;;;;;102.93;41.72;;;;;;;5.78;70.65;103348.34;5081155;28;20048;-91
2022/01/25 11:00:56;;;;;;;106.53;44.30;;;;;;;5.70;71.54;103335.09;5083924;28;20411;-90
2022/01/25 11:03:32;;;;;;;97.28;40.42;;;;;;;5.77;72.04;103338.72;5084358;28;20024;-90
2022/01/25 11:06:08;;;;;;;100.43;42.25;;;;;;;5.75;71.22;103346.56;5085619;28;20111;-91
2022/01/25 11:08:37;;;;;;;98.43;40.92;;;;;;;5.62;71.10;103350.69;5081739;28;20571;-90
2022/01/25 11:11:03;;;;;;;99.32;40.75;;;;;;;5.60;72.11;103349.78;5083406;28;20511;-91
2022/01/25 11:15:58;;;;;;;99.07;40.00;;;;;;;5.59;71.96;103349.72;5083829;28;20105;-90
2022/01/25 11:18:25;;;;;;;97.25;39.42;;;;;;;5.69;71.86;103359.59;5082188;28;20275;-90
2022/01/25 11:20:51;;;;;;;98.47;39.13;;;;;;;5.63;71.62;103354.19;5084835;28;20028;-90
2022/01/25 11:23:18;;;;;;;95.45;38.45;;;;;;;5.70;70.98;103365.72;5074728;28;20016;-92
2022/01/25 11:25:48;;;;;;;96.47;40.45;;;;;;;5.61;70.73;103355.91;5078665;28;20074;-90
2022/01/25 11:28:14;;;;;;;99.18;41.45;;;;;;;5.60;70.91;103356.75;5079111;28;20679;-91
2022/01/25 11:30:42;;;;;;;93.18;39.25;;;;;;;5.59;69.80;103349.72;5084500;28;20036;-91
2022/01/25 11:33:09;;;;;;;96.30;40.92;;;;;;;5.67;70.86;103363.00;5080849;28;20124;-91
2022/01/25 11:35:36;;;;;;;100.55;41.20;;;;;;;5.75;70.22;103364.06;5083771;28;20020;-91
2022/01/25 11:38:03;;;;;;;98.40;39.50;;;;;;;5.69;69.39;103353.41;5075008;28;20035;-91
2022/01/25 11:40:36;;;;;;;106.47;41.10;;;;;;;5.74;70.37;103364.94;5069460;28;20024;-91
2022/01/25 11:43:07;;;;;;;101.20;41.28;;;;;;;5.82;69.01;103355.44;5078544;28;20039;-90
2022/01/25 11:45:36;;;;;;;102.30;41.03;;;;;;;5.77;70.28;103360.59;5078325;28;20118;-91
2022/01/25 11:48:02;;;;;;;100.22;39.38;;;;;;;5.76;70.33;103358.84;5072960;28;20020;-90
2022/01/25 11:50:42;;;;;;;97.50;40.08;;;;;;;5.76;71.29;103350.97;5075297;28;20031;-90
2022/01/25 11:53:10;;;;;;;91.68;38.65;;;;;;;5.86;70.64;103358.16;5080352;28;20031;-91
2022/01/25 11:55:42;;;;;;;91.28;39.53;;;;;;;5.88;70.72;103350.34;5078331;28;20119;-90
2022/01/25 11:58:14;;;;;;;91.97;38.75;;;;;;;5.87;70.47;103351.16;5084603;28;20024;-90
2022/01/25 12:00:46;;;;;;;97.65;39.75;;;;;;;5.91;70.43;103355.63;5081241;28;20020;-91
2022/01/25 12:03:33;;;;;;;93.30;37.87;;;;;;;5.83;70.80;103344.13;5080997;28;20028;-90
2022/01/25 12:06:31;;;;;;;97.50;39.75;;;;;;;5.76;70.41;103342.22;5078763;28;20077;-91
2022/01/25 12:11:58;;;;;;;92.38;40.22;;;;;;;5.74;70.99;103336.06;5079372;28;20031;-90
2022/01/25 12:14:48;;;;;;;93.78;37.58;;;;;;;5.78;71.17;103333.53;5076656;28;20499;-90
2022/01/25 12:17:23;;;;;;;94.53;37.75;;;;;;;5.78;70.75;103335.22;5077756;28;20044;-91
2022/01/25 12:19:57;;;;;;;92.53;37.95;;;;;;;5.74;70.35;103331.69;5079631;28;20024;-90
2022/01/25 12:22:25;;;;;;;96.10;38.22;;;;;;;5.80;70.39;103337.06;5083335;28;20028;-91
2022/01/25 12:25:16;;;;;;;89.05;37.25;;;;;;;5.72;71.04;103319.38;5078880;28;20025;-90
2022/01/25 12:28:09;;;;;;;93.20;39.40;;;;;;;5.88;71.08;103338.09;5080550;28;20032;-91
2022/01/25 12:30:44;;;;;;;89.45;37.08;;;;;;;5.86;69.34;103334.53;5082374;28;20052;-91
2022/01/25 12:33:40;;;;;;;92.50;38.30;;;;;;;5.94;70.29;103336.47;5088206;28;20024;-91
2022/01/25 12:36:08;;;;;;;93.68;36.38;;;;;;;5.89;70.13;103325.84;5072504;28;20048;-91
2022/01/25 12:38:46;;;;;;;92.13;38.20;;;;;;;6.02;69.86;103334.88;5088721;28;20030;-91
2022/01/25 12:41:22;;;;;;;90.07;38.20;;;;;;;6.03;68.60;103320.88;5088181;28;20077;-91
2022/01/25 12:43:55;;;;;;;93.07;38.47;;;;;;;6.10;68.76;103328.88;5094191;28;20070;-91
2022/01/25 12:46:27;;;;;;;87.78;37.60;;;;;;;6.16;68.53;103333.41;5076491;28;20039;-91
2022/01/25 12:48:58;;;;;;;88.43;36.67;;;;;;;6.13;67.82;103315.81;5085475;28;20028;-91
2022/01/25 12:51:27;;;;;;;89.53;36.22;;;;;;;6.24;67.92;103328.25;5076570;28;20039;-91
2022/01/25 12:53:56;;;;;;;90.15;36.80;;;;;;;6.18;67.38;103312.41;5089246;28;20075;-91
2022/01/25 12:56:34;;;;;;;94.03;36.67;;;;;;;6.25;68.37;103316.88;5089985;28;20027;-92
2022/01/25 12:59:12;;;;;;;80.57;36.45;;;;;;;6.28;68.48;103317.84;5078538;28;20054;-91
2022/01/25 13:01:40;;;;;;;88.50;37.50;;;;;;;6.23;67.71;103300.22;5088773;28;20502;-91
2022/01/25 13:04:06;;;;;;;90.53;36.65;;;;;;;6.29;67.03;103308.19;5078906;28;20028;-91
2022/01/25 13:06:35;;;;;;;81.47;34.28;;;;;;;6.28;66.90;103309.94;5074332;28;20472;-91
2022/01/25 13:11:42;;;;;;;87.72;36.60;;;;;;;6.21;66.27;103291.44;5083049;28;20028;-92
2022/01/25 13:16:39;;;;;;;86.20;36.88;;;;;;;6.23;66.69;103289.72;5083621;28;20105;-91
2022/01/25 13:19:05;;;;;;;81.07;34.97;;;;;;;6.29;66.98;103292.44;5084314;28;20467;-91
2022/01/25 13:21:39;;;;;;;82.90;33.15;;;;;;;6.35;67.29;103282.06;5082043;28;20028;-92
2022/01/25 13:24:11;;;;;;;84.95;33.28;;;;;;;6.36;67.77;103273.31;5074342;28;20491;-92